Terminal Aerodrome Forecast
Issued by NWS Mt. Holly, NJ

Home | Current Version | Previous Version | Text Only | Print | Product List | Glossary On
Versions: 1 2 3 4 5 6 7 8 9 10 11 12 13 14 15 16 17 18 19 20 21 22 23 24 25 26 27 28 29
000
FTUS41 KPHI 051135
TAFPHL
TAF
KPHL 051135Z 0512/0618 VRB04KT P6SM SCT040 SCT250
     FM051700 21006KT P6SM FEW050
     FM060100 18004KT P6SM SCT250
     FM060600 VRB03KT P6SM BKN200
     FM061200 16006KT P6SM BKN150 PROB30 0614/0618 5SM -SHRA=

USA.gov is the U.S. government's official web portal to all federal, state and local government web resources and services.